createdAt,value
2022-11-02T00:00:30.444Z,9.27
2022-11-02T00:02:58.259Z,9.28
2022-11-02T00:05:27.344Z,9.30
2022-11-02T00:07:56.195Z,9.25
2022-11-02T00:10:25.326Z,9.26
2022-11-02T00:12:53.565Z,9.11
2022-11-02T00:15:21.216Z,9.06
2022-11-02T00:17:53.957Z,9.06
2022-11-02T00:20:22.252Z,9.25
2022-11-02T00:22:53.569Z,9.11
2022-11-02T00:25:24.638Z,9.09
2022-11-02T00:27:52.275Z,9.02
2022-11-02T00:30:20.017Z,8.94
2022-11-02T00:32:47.778Z,8.92
2022-11-02T00:35:17.051Z,8.84
2022-11-02T00:37:44.788Z,8.91
2022-11-02T00:40:13.029Z,8.78
2022-11-02T00:42:40.727Z,8.84
2022-11-02T00:45:09.711Z,8.77
2022-11-02T00:47:37.309Z,8.70
2022-11-02T00:50:05.912Z,8.69
2022-11-02T00:52:34.929Z,8.64
2022-11-02T00:55:02.747Z,8.57
2022-11-02T00:57:30.318Z,8.59
2022-11-02T00:59:58.080Z,8.58
2022-11-02T01:02:25.847Z,8.64
2022-11-02T01:04:53.858Z,8.58
2022-11-02T01:07:21.429Z,8.67
2022-11-02T01:09:50.646Z,8.66
2022-11-02T01:12:18.202Z,8.62
2022-11-02T01:14:47.014Z,8.62
2022-11-02T01:17:15.336Z,8.57
2022-11-02T01:19:43.455Z,8.53
2022-11-02T01:22:11.051Z,8.55
2022-11-02T01:24:38.683Z,8.55
2022-11-02T01:27:07.688Z,8.58
2022-11-02T01:29:35.376Z,8.61
2022-11-02T01:32:03.248Z,8.66
2022-11-02T01:34:30.833Z,8.72
2022-11-02T01:36:58.842Z,8.63
2022-11-02T01:39:26.422Z,8.58
2022-11-02T01:41:55.277Z,8.50
2022-11-02T01:44:33.793Z,8.59
2022-11-02T01:47:08.888Z,8.55
2022-11-02T01:49:39.548Z,8.52
2022-11-02T01:52:12.322Z,8.58
2022-11-02T01:54:43.462Z,8.56
2022-11-02T01:57:17.721Z,8.60
2022-11-02T01:59:51.529Z,8.66
2022-11-02T02:02:23.001Z,8.67
2022-11-02T02:04:53.614Z,8.69
2022-11-02T02:07:24.834Z,8.65
2022-11-02T02:09:53.718Z,8.66
2022-11-02T02:12:22.415Z,8.63
2022-11-02T02:14:51.851Z,8.77
2022-11-02T02:17:33.165Z,8.86
2022-11-02T02:20:06.397Z,9.03
2022-11-02T02:23:07.463Z,9.20
2022-11-02T02:26:09.381Z,9.05
2022-11-02T02:28:44.298Z,9.21
2022-11-02T02:31:18.639Z,9.02
2022-11-02T02:33:52.770Z,8.80
2022-11-02T02:36:25.786Z,8.63
2022-11-02T02:39:03.329Z,8.63
2022-11-02T02:41:40.102Z,8.64
2022-11-02T02:44:12.466Z,8.62
2022-11-02T02:46:49.069Z,8.74
2022-11-02T02:49:22.862Z,8.66
2022-11-02T02:51:52.242Z,8.68
2022-11-02T02:54:22.819Z,8.66
2022-11-02T02:56:54.833Z,8.74
2022-11-02T02:59:28.392Z,8.77
2022-11-02T03:01:57.025Z,8.81
2022-11-02T03:04:24.763Z,8.74
2022-11-02T03:06:55.682Z,8.66
2022-11-02T03:09:29.871Z,8.70
2022-11-02T03:12:04.271Z,8.76
2022-11-02T03:14:49.932Z,8.92
2022-11-02T03:17:19.659Z,9.06
2022-11-02T03:19:54.235Z,9.09
2022-11-02T03:22:31.961Z,9.20
2022-11-02T03:25:07.153Z,9.35
2022-11-02T03:27:40.919Z,9.34
2022-11-02T03:30:14.551Z,9.41
2022-11-02T03:32:49.667Z,9.43
2022-11-02T03:35:21.714Z,9.34
2022-11-02T03:37:55.613Z,9.34
2022-11-02T03:40:29.259Z,9.48
2022-11-02T03:42:58.807Z,9.50
2022-11-02T03:45:32.862Z,9.62
2022-11-02T03:48:05.151Z,9.50
2022-11-02T03:50:35.278Z,9.40
2022-11-02T03:53:07.484Z,9.31
2022-11-02T03:55:38.676Z,9.37
2022-11-02T03:58:07.766Z,9.35
2022-11-02T04:00:39.835Z,9.51
2022-11-02T04:03:07.888Z,9.54
2022-11-02T04:05:37.053Z,9.71
2022-11-02T04:08:24.445Z,9.85
2022-11-02T04:11:12.214Z,9.91
2022-11-02T04:13:57.471Z,10.03
2022-11-02T04:16:28.270Z,10.07
2022-11-02T04:19:14.230Z,10.02
2022-11-02T04:22:03.269Z,10.10
2022-11-02T04:24:48.539Z,10.19
2022-11-02T04:27:20.484Z,10.18
2022-11-02T04:29:48.705Z,10.31
2022-11-02T04:32:38.761Z,10.38
2022-11-02T04:35:06.683Z,10.39
2022-11-02T04:37:57.042Z,10.45
2022-11-02T04:40:24.693Z,10.37
2022-11-02T04:42:52.314Z,10.36
2022-11-02T04:45:20.108Z,10.28
2022-11-02T04:47:49.060Z,10.21
2022-11-02T04:50:16.910Z,10.05
2022-11-02T04:52:44.578Z,9.98
2022-11-02T04:55:12.231Z,9.93
2022-11-02T05:00:13.704Z,9.88
2022-11-02T05:02:41.352Z,9.81
2022-11-02T05:05:12.796Z,9.76
2022-11-02T05:07:41.085Z,9.71
2022-11-02T05:10:10.649Z,9.71
2022-11-02T05:12:38.496Z,9.64
2022-11-02T05:15:07.177Z,9.53
2022-11-02T05:17:34.772Z,9.39
2022-11-02T05:20:02.697Z,9.37
2022-11-02T05:22:32.123Z,9.22
2022-11-02T05:24:59.699Z,9.25
2022-11-02T05:27:27.256Z,9.20
2022-11-02T05:29:54.826Z,9.17
2022-11-02T05:32:22.435Z,9.09
2022-11-02T05:34:50.122Z,9.09
2022-11-02T05:37:17.861Z,9.06
2022-11-02T05:39:49.531Z,9.17
2022-11-02T05:42:18.230Z,9.12
2022-11-02T05:44:45.925Z,9.22
2022-11-02T05:47:13.518Z,9.22
2022-11-02T05:49:41.078Z,9.13
2022-11-02T05:52:08.797Z,9.09
2022-11-02T05:54:36.378Z,9.09
2022-11-02T05:57:05.387Z,9.06
2022-11-02T05:59:32.949Z,9.11
2022-11-02T06:02:00.598Z,9.06
2022-11-02T06:04:28.361Z,9.15
2022-11-02T06:06:56.088Z,9.12
2022-11-02T06:09:23.844Z,9.07
2022-11-02T06:11:51.533Z,9.15
2022-11-02T06:14:20.427Z,9.13
2022-11-02T06:16:47.991Z,9.20
2022-11-02T06:21:48.643Z,9.17
2022-11-02T06:24:16.673Z,9.23
2022-11-02T06:26:44.321Z,9.22
2022-11-02T06:29:11.919Z,9.31
2022-11-02T06:31:40.873Z,9.38
2022-11-02T06:34:08.533Z,9.42
2022-11-02T06:36:36.242Z,9.54
2022-11-02T06:39:03.883Z,9.68
2022-11-02T06:41:31.575Z,9.63
2022-11-02T06:43:59.212Z,9.68
2022-11-02T06:46:26.845Z,9.75
2022-11-02T06:48:55.833Z,9.72
2022-11-02T06:51:23.458Z,9.71
2022-11-02T06:53:51.127Z,9.85
2022-11-02T06:56:18.749Z,9.78
2022-11-02T06:58:46.581Z,9.72
2022-11-02T07:01:15.676Z,9.66
2022-11-02T07:03:43.829Z,9.65
2022-11-02T07:06:14.379Z,9.60
2022-11-02T07:08:42.695Z,9.60
2022-11-02T07:11:15.242Z,9.77
2022-11-02T07:13:42.931Z,10.41
2022-11-02T07:16:10.621Z,11.00
2022-11-02T07:18:38.487Z,11.87
2022-11-02T07:21:06.263Z,12.32
2022-11-02T07:23:35.248Z,12.92
2022-11-02T07:26:03.132Z,13.13
2022-11-02T07:28:30.752Z,13.79
2022-11-02T07:30:58.521Z,13.93
2022-11-02T07:33:26.102Z,14.10
2022-11-02T07:35:53.678Z,14.67
2022-11-02T07:38:21.267Z,14.79
2022-11-02T07:40:51.613Z,14.94
2022-11-02T07:43:19.272Z,14.94
2022-11-02T07:45:46.864Z,14.52
2022-11-02T07:48:14.447Z,14.32
2022-11-02T07:50:42.177Z,14.71
2022-11-02T07:53:10.279Z,14.06
2022-11-02T07:55:37.857Z,14.25
2022-11-02T07:58:11.241Z,14.63
2022-11-02T08:00:40.857Z,14.87
2022-11-02T08:03:10.938Z,14.88
2022-11-02T08:05:40.128Z,14.29
2022-11-02T08:08:11.281Z,13.82
2022-11-02T08:10:46.247Z,13.47
2022-11-02T08:13:17.936Z,13.40
2022-11-02T08:15:45.935Z,12.93
2022-11-02T08:18:15.565Z,13.02
2022-11-02T08:20:43.739Z,12.81
2022-11-02T08:23:11.919Z,12.81
2022-11-02T08:25:40.461Z,12.77
2022-11-02T08:28:09.417Z,12.70
2022-11-02T08:30:39.379Z,12.84
2022-11-02T08:33:09.641Z,12.80
2022-11-02T08:35:44.739Z,12.90
2022-11-02T08:38:12.791Z,12.95
2022-11-02T08:40:43.046Z,13.32
2022-11-02T08:43:14.371Z,13.51
2022-11-02T08:48:33.045Z,13.71
2022-11-02T08:51:00.637Z,13.82
2022-11-02T08:53:28.305Z,13.70
2022-11-02T08:55:58.204Z,13.85
2022-11-02T08:58:25.847Z,13.95
2022-11-02T09:00:55.229Z,13.96
2022-11-02T09:03:26.794Z,14.07
2022-11-02T09:05:59.449Z,14.07
2022-11-02T09:08:28.438Z,14.15
2022-11-02T09:10:59.854Z,14.27
2022-11-02T09:13:27.794Z,14.17
2022-11-02T09:15:57.980Z,13.93
2022-11-02T09:18:25.711Z,13.96
2022-11-02T09:20:53.403Z,14.12
2022-11-02T09:23:22.148Z,14.10
2022-11-02T09:25:50.095Z,14.19
2022-11-02T09:28:17.631Z,14.25
2022-11-02T09:30:45.310Z,14.19
2022-11-02T09:33:14.664Z,14.36
2022-11-02T09:35:44.659Z,14.12
2022-11-02T09:38:13.259Z,14.08
2022-11-02T09:40:44.220Z,13.97
2022-11-02T09:43:21.299Z,14.13
2022-11-02T09:45:56.778Z,14.27
2022-11-02T09:48:30.222Z,14.27
2022-11-02T09:51:05.171Z,14.34
2022-11-02T09:53:43.056Z,14.52
2022-11-02T09:56:14.004Z,14.94
2022-11-02T09:58:43.100Z,14.99
2022-11-02T10:01:34.060Z,15.14
2022-11-02T10:04:29.814Z,15.62
2022-11-02T10:07:11.497Z,15.61
2022-11-02T10:09:47.465Z,15.45
2022-11-02T10:17:50.552Z,15.64
2022-11-02T10:20:27.631Z,15.22
2022-11-02T10:23:03.753Z,14.82
2022-11-02T10:25:31.916Z,15.02
2022-11-02T10:28:10.311Z,15.14
2022-11-02T10:30:39.702Z,15.20
2022-11-02T10:33:16.117Z,15.17
2022-11-02T10:38:51.170Z,14.53
2022-11-02T10:41:36.774Z,14.39
2022-11-02T10:44:17.860Z,14.49
2022-11-02T10:46:58.805Z,14.32
2022-11-02T10:49:45.528Z,14.41
2022-11-02T10:52:19.041Z,14.57
2022-11-02T10:54:46.682Z,14.71
2022-11-02T10:57:15.929Z,14.96
2022-11-02T10:59:43.482Z,15.00
2022-11-02T11:02:14.407Z,15.08
2022-11-02T11:04:43.798Z,15.01
2022-11-02T11:07:19.060Z,15.25
2022-11-02T11:09:51.343Z,15.24
2022-11-02T11:12:23.940Z,15.38
2022-11-02T11:20:35.070Z,15.16
2022-11-02T11:23:19.959Z,14.97
2022-11-02T11:25:59.749Z,14.97
2022-11-02T11:28:30.264Z,15.14
2022-11-02T11:31:13.337Z,15.20
2022-11-02T11:33:54.263Z,15.12
2022-11-02T11:36:27.851Z,14.96
2022-11-02T11:39:00.291Z,14.99
2022-11-02T11:41:28.956Z,15.07
2022-11-02T11:43:56.798Z,15.46
2022-11-02T11:46:24.662Z,15.82
2022-11-02T11:48:59.066Z,16.07
2022-11-02T11:51:33.314Z,16.13
2022-11-02T11:54:27.781Z,16.51
2022-11-02T11:56:56.824Z,16.53
2022-11-02T11:59:33.369Z,16.88
2022-11-02T12:02:02.877Z,16.98
2022-11-02T12:04:34.527Z,17.17
2022-11-02T12:07:33.091Z,16.69
2022-11-02T12:10:13.065Z,16.83
2022-11-02T12:12:53.464Z,16.84
2022-11-02T12:15:36.466Z,16.56
2022-11-02T12:18:20.038Z,16.31
2022-11-02T12:21:03.205Z,15.76
2022-11-02T12:23:52.921Z,15.55
2022-11-02T12:26:31.575Z,15.51
2022-11-02T12:29:12.572Z,15.63
2022-11-02T12:31:44.806Z,15.84
2022-11-02T12:34:30.805Z,15.96
2022-11-02T12:37:33.169Z,16.14
2022-11-02T12:40:12.071Z,16.49
2022-11-02T12:42:47.310Z,16.64
2022-11-02T12:45:28.535Z,16.88
2022-11-02T12:47:59.679Z,16.88
2022-11-02T12:50:45.543Z,16.83
2022-11-02T12:53:38.475Z,16.33
2022-11-02T12:56:11.749Z,16.35
2022-11-02T12:58:42.702Z,16.25
2022-11-02T13:01:15.379Z,16.33
2022-11-02T13:03:50.823Z,16.36
2022-11-02T13:06:22.979Z,16.20
2022-11-02T13:08:55.536Z,16.11
2022-11-02T13:11:29.845Z,15.90
2022-11-02T13:14:00.723Z,15.73
2022-11-02T13:16:40.685Z,15.49
2022-11-02T13:19:16.292Z,15.64
2022-11-02T13:21:51.359Z,15.67
2022-11-02T13:24:25.093Z,15.66
2022-11-02T13:26:57.662Z,15.72
2022-11-02T13:29:44.889Z,16.05
2022-11-02T13:32:19.054Z,16.15
2022-11-02T13:34:53.162Z,16.27
2022-11-02T13:37:26.993Z,16.48
2022-11-02T13:39:58.950Z,16.67
2022-11-02T13:43:03.464Z,16.74
2022-11-02T13:45:56.657Z,16.44
2022-11-02T13:48:51.720Z,16.50
2022-11-02T13:51:27.563Z,16.33
2022-11-02T13:54:00.472Z,16.28
2022-11-02T13:56:30.308Z,16.17
2022-11-02T13:59:03.045Z,15.89
2022-11-02T14:01:36.485Z,15.81
2022-11-02T14:04:08.027Z,15.80
2022-11-02T14:06:48.938Z,15.80
2022-11-02T14:09:28.956Z,15.81
2022-11-02T14:12:34.265Z,15.56
2022-11-02T14:15:42.221Z,15.31
2022-11-02T14:18:30.794Z,15.21
2022-11-02T14:20:59.139Z,15.13
2022-11-02T14:23:38.540Z,15.16
2022-11-02T14:26:26.425Z,15.13
2022-11-02T14:28:53.961Z,15.10
2022-11-02T14:31:38.524Z,15.16
2022-11-02T14:34:39.876Z,15.07
2022-11-02T14:37:27.406Z,15.22
2022-11-02T14:40:01.842Z,15.44
2022-11-02T14:43:06.886Z,15.42
2022-11-02T14:45:53.242Z,15.39
2022-11-02T14:48:20.951Z,15.31
2022-11-02T14:51:05.150Z,15.27
2022-11-02T14:53:36.182Z,15.20
2022-11-02T14:56:04.541Z,15.08
2022-11-02T14:58:36.322Z,14.94
2022-11-02T15:01:05.933Z,14.86
2022-11-02T15:03:37.741Z,14.75
2022-11-02T15:06:17.445Z,14.62
2022-11-02T15:08:54.037Z,14.50
2022-11-02T15:11:44.065Z,14.44
2022-11-02T15:14:34.364Z,14.33
2022-11-02T15:17:02.508Z,14.23
2022-11-02T15:19:43.919Z,14.14
2022-11-02T15:22:36.363Z,14.06
2022-11-02T15:25:12.757Z,13.92
2022-11-02T15:27:43.389Z,13.83
2022-11-02T15:30:15.293Z,13.75
2022-11-02T15:32:48.281Z,13.64
2022-11-02T15:35:20.131Z,13.66
2022-11-02T15:38:16.053Z,13.54
2022-11-02T15:40:49.251Z,13.45
2022-11-02T15:43:38.069Z,13.36
2022-11-02T15:46:14.872Z,13.31
2022-11-02T15:48:49.560Z,13.18
2022-11-02T15:51:25.652Z,13.14
2022-11-02T15:54:14.511Z,13.07
2022-11-02T15:56:55.728Z,12.93
2022-11-02T16:00:11.385Z,12.84
2022-11-02T16:02:41.349Z,12.71
2022-11-02T16:05:20.918Z,12.59
2022-11-02T16:08:16.712Z,12.55
2022-11-02T16:10:42.309Z,12.54
2022-11-02T16:13:16.880Z,12.50
2022-11-02T16:15:45.433Z,12.47
2022-11-02T16:18:26.794Z,12.40
2022-11-02T16:20:57.408Z,12.29
2022-11-02T16:23:27.943Z,12.24
2022-11-02T16:25:59.381Z,12.22
2022-11-02T16:28:28.444Z,12.15
2022-11-02T16:31:01.215Z,12.12
2022-11-02T16:33:31.521Z,12.06
2022-11-02T16:36:00.106Z,12.06
2022-11-02T16:38:28.780Z,11.99
2022-11-02T16:40:58.155Z,11.99
2022-11-02T16:43:27.699Z,12.02
2022-11-02T16:46:03.934Z,11.98
2022-11-02T16:48:34.449Z,11.98
2022-11-02T16:51:14.978Z,11.94
2022-11-02T16:53:42.763Z,11.91
2022-11-02T16:56:32.377Z,11.86
2022-11-02T16:59:02.795Z,11.80
2022-11-02T17:01:37.337Z,11.77
2022-11-02T17:04:16.374Z,11.67
2022-11-02T17:06:44.307Z,11.70
2022-11-02T17:09:23.904Z,11.51
2022-11-02T17:11:54.252Z,11.48
2022-11-02T17:14:23.571Z,11.44
2022-11-02T17:17:00.682Z,11.43
2022-11-02T17:19:46.645Z,11.43
2022-11-02T17:22:23.968Z,11.42
2022-11-02T17:25:04.954Z,11.34
2022-11-02T17:27:39.211Z,11.35
2022-11-02T17:30:42.346Z,11.24
2022-11-02T17:33:17.238Z,11.17
2022-11-02T17:35:51.787Z,11.11
2022-11-02T17:38:21.516Z,11.09
2022-11-02T17:40:52.162Z,11.12
2022-11-02T17:43:21.848Z,11.14
2022-11-02T17:45:55.944Z,11.09
2022-11-02T17:48:24.776Z,11.11
2022-11-02T17:50:54.218Z,11.09
2022-11-02T17:53:22.376Z,11.09
2022-11-02T17:55:49.993Z,11.08
2022-11-02T17:58:19.876Z,11.07
2022-11-02T18:00:48.956Z,11.02
2022-11-02T18:03:19.234Z,10.95
2022-11-02T18:05:50.076Z,10.92
2022-11-02T18:08:20.140Z,10.91
2022-11-02T18:10:51.053Z,10.84
2022-11-02T18:13:20.587Z,10.83
2022-11-02T18:15:49.955Z,10.79
2022-11-02T18:18:17.862Z,10.74
2022-11-02T18:20:45.954Z,10.71
2022-11-02T18:23:16.558Z,10.66
2022-11-02T18:25:44.367Z,10.67
2022-11-02T18:28:12.089Z,10.63
2022-11-02T18:30:43.072Z,10.61
2022-11-02T18:33:13.772Z,10.58
2022-11-02T18:35:43.142Z,10.59
2022-11-02T18:38:10.831Z,10.52
2022-11-02T18:40:38.437Z,10.43
2022-11-02T18:43:06.290Z,10.34
2022-11-02T18:45:34.155Z,10.31
2022-11-02T18:48:01.903Z,10.28
2022-11-02T18:50:30.953Z,10.30
2022-11-02T18:52:58.786Z,10.26
2022-11-02T18:55:26.597Z,10.26
2022-11-02T18:57:54.364Z,10.29
2022-11-02T19:00:23.600Z,10.24
2022-11-02T19:02:51.209Z,10.23
2022-11-02T19:05:36.604Z,10.20
2022-11-02T19:08:23.297Z,10.09
2022-11-02T19:10:50.848Z,9.98
2022-11-02T19:13:18.426Z,9.90
2022-11-02T19:15:46.052Z,9.92
2022-11-02T19:18:13.659Z,9.85
2022-11-02T19:20:41.344Z,9.77
2022-11-02T19:23:12.695Z,9.76
2022-11-02T19:25:40.327Z,9.74
2022-11-02T19:28:08.307Z,9.66
2022-11-02T19:30:38.566Z,9.55
2022-11-02T19:33:06.551Z,9.48
2022-11-02T19:35:34.389Z,9.47
2022-11-02T19:38:02.038Z,9.53
2022-11-02T19:40:31.005Z,9.44
2022-11-02T19:42:58.692Z,9.46
2022-11-02T19:45:26.280Z,9.56
2022-11-02T19:47:53.884Z,9.48
2022-11-02T19:50:21.568Z,9.48
2022-11-02T19:52:49.701Z,9.41
2022-11-02T19:55:18.122Z,9.39
2022-11-02T19:57:49.509Z,9.30
2022-11-02T20:00:17.743Z,9.29
2022-11-02T20:02:45.342Z,9.23
2022-11-02T20:05:14.576Z,9.14
2022-11-02T20:07:42.170Z,9.16
2022-11-02T20:10:10.440Z,9.09
2022-11-02T20:12:38.612Z,9.06
2022-11-02T20:15:12.164Z,8.94
2022-11-02T20:17:58.541Z,8.96
2022-11-02T20:20:27.980Z,8.85
2022-11-02T20:22:55.931Z,8.80
2022-11-02T20:25:25.476Z,8.77
2022-11-02T20:27:53.606Z,8.91
2022-11-02T20:30:23.034Z,8.89
2022-11-02T20:32:52.066Z,9.04
2022-11-02T20:35:24.568Z,8.82
2022-11-02T20:37:52.420Z,8.90
2022-11-02T20:40:19.987Z,8.79
2022-11-02T20:42:49.352Z,8.66
2022-11-02T20:45:17.818Z,8.57
2022-11-02T20:47:46.905Z,8.51
2022-11-02T20:50:16.728Z,8.51
2022-11-02T20:52:46.839Z,8.41
2022-11-02T20:55:14.473Z,8.42
2022-11-02T20:57:42.135Z,8.30
2022-11-02T21:00:11.553Z,8.31
2022-11-02T21:02:39.458Z,8.24
2022-11-02T21:05:09.626Z,8.25
2022-11-02T21:07:38.981Z,8.20
2022-11-02T21:10:07.990Z,8.21
2022-11-02T21:12:53.037Z,8.06
2022-11-02T21:15:20.697Z,8.03
2022-11-02T21:17:48.910Z,8.01
2022-11-02T21:20:33.516Z,8.03
2022-11-02T21:23:02.753Z,7.96
2022-11-02T21:25:31.699Z,8.08
2022-11-02T21:27:59.862Z,8.00
2022-11-02T21:30:28.473Z,7.94
2022-11-02T21:32:56.073Z,7.95
2022-11-02T21:35:27.771Z,8.04
2022-11-02T21:38:01.246Z,7.97
2022-11-02T21:40:31.532Z,8.07
2022-11-02T21:42:59.303Z,8.10
2022-11-02T21:45:27.012Z,8.01
2022-11-02T21:47:54.600Z,8.03
2022-11-02T21:50:22.205Z,8.14
2022-11-02T21:52:51.189Z,8.04
2022-11-02T21:55:18.793Z,8.11
2022-11-02T21:57:46.745Z,8.31
2022-11-02T22:00:15.533Z,8.39
2022-11-02T22:02:42.331Z,8.25
2022-11-02T22:05:30.288Z,8.13
2022-11-02T22:08:17.005Z,7.97
2022-11-02T22:10:44.882Z,7.97
2022-11-02T22:13:29.986Z,8.00
2022-11-02T22:15:57.716Z,8.00
2022-11-02T22:18:25.429Z,8.03
2022-11-02T22:20:56.138Z,8.02
2022-11-02T22:23:25.234Z,7.97
2022-11-02T22:25:58.425Z,7.93
2022-11-02T22:28:30.356Z,7.92
2022-11-02T22:30:58.251Z,7.89
2022-11-02T22:33:26.458Z,8.02
2022-11-02T22:35:54.077Z,8.03
2022-11-02T22:38:39.216Z,8.10
2022-11-02T22:41:08.356Z,8.09
2022-11-02T22:43:36.023Z,8.06
2022-11-02T22:46:06.030Z,8.06
2022-11-02T22:48:34.291Z,8.17
2022-11-02T22:51:02.304Z,8.10
2022-11-02T22:53:30.239Z,8.18
2022-11-02T22:55:59.647Z,8.16
2022-11-02T22:58:30.361Z,8.12
2022-11-02T23:00:58.478Z,8.18
2022-11-02T23:03:26.277Z,8.20
2022-11-02T23:05:54.311Z,8.20
2022-11-02T23:08:22.266Z,8.19
2022-11-02T23:11:13.078Z,8.26
2022-11-02T23:13:43.598Z,8.32
2022-11-02T23:16:24.833Z,8.27
2022-11-02T23:19:12.807Z,8.31
2022-11-02T23:21:41.855Z,8.33
2022-11-02T23:24:27.739Z,8.24
2022-11-02T23:26:56.946Z,8.19
2022-11-02T23:29:43.684Z,8.20
2022-11-02T23:32:27.518Z,8.15
2022-11-02T23:35:14.290Z,8.27
2022-11-02T23:37:42.444Z,8.22
2022-11-02T23:40:11.498Z,8.26
2022-11-02T23:42:39.401Z,8.21
2022-11-02T23:45:10.725Z,8.25
2022-11-02T23:47:56.615Z,8.26
2022-11-02T23:50:43.679Z,8.29
2022-11-02T23:53:30.793Z,8.19
2022-11-02T23:56:16.440Z,8.17
2022-11-02T23:58:44.347Z,8.16
